Historique des mesures à Cassis (13260), France
Quotidien Résumé Juin 22, 2021 Unités:  Métrique/US    US   Métrique
Quotidien Hebdomadaire Mensuel Annuel
  Maximum: Minimum: Moyenne:
Température: 67.1 °F /  19.5 °C 55.9 °F /  13.3 °C 61 °F /  16.1 °C
Point de rosée: 49.8 °F /  9.9 °C 39 °F /  3.9 °C 45 °F /  7.2 °C
Humidité: 66% 48% 56%
Vitesse du vent: 29.1mph /  46.8km/h - 12.2mph /  19.6km/h
Rafales: 57mph /  91.8km/h - -
Vent- - West
Pression: 30 in /  1015.0 hPa 29.9 in /  1011.6 hPa -
Précipitations: 0 in /  0.0 mm    
Historical Graphs
 
 
Mesures pour : Juin 22, 2021
Heure Temperature Point de rosée Pression Vent Vitesse du vent Rafales Humidité Pluie (par heure)
00:11 63 °F /  17.2 °C 45.5 °F /  7.5 °C 29.9in /  1012.8hPa WNW 13.2mph /  21.2km/h 19.9mph /  32km/h 53% 0in /  0.0mm
01:11 62.4 °F /  16.9 °C 43.5 °F /  6.4 °C 29.9in /  1012.1hPa NW 21.9mph /  35.3km/h 57mph /  91.8km/h 50% 0in /  0.0mm
02:11 61.5 °F /  16.4 °C 43.7 °F /  6.5 °C 29.9in /  1012.1hPa WNW 7.8mph /  12.6km/h 57mph /  91.8km/h 52% 0in /  0.0mm
03:11 60.4 °F /  15.8 °C 44.2 °F /  6.8 °C 29.9in /  1012.0hPa West 13.9mph /  22.3km/h 57mph /  91.8km/h 55% 0in /  0.0mm
04:11 59.4 °F /  15.2 °C 44.1 °F /  6.7 °C 29.9in /  1011.6hPa WNW 18.3mph /  29.5km/h 30.2mph /  48.6km/h 57% 0in /  0.0mm
05:11 59.2 °F /  15.1 °C 44.8 °F /  7.1 °C 29.9in /  1011.6hPa WNW 13.7mph /  22km/h 27.7mph /  44.6km/h 59% 0in /  0.0mm
06:11 58.1 °F /  14.5 °C 44.8 °F /  7.1 °C 29.9in /  1011.8hPa NW 19mph /  30.6km/h 28.8mph /  46.4km/h 61% 0in /  0.0mm
07:11 57 °F /  13.9 °C 44.6 °F /  7 °C 29.9in /  1012.0hPa West 14.5mph /  23.4km/h 21.5mph /  34.6km/h 63% 0in /  0.0mm
08:11 55.9 °F /  13.3 °C 44.8 °F /  7.1 °C 29.9in /  1012.1hPa Calm   4.2mph /  6.8km/h 66% 0in /  0.0mm
09:11 56.8 °F /  13.8 °C 45.5 °F /  7.5 °C 29.9in /  1012.8hPa WNW 9.2mph /  14.8km/h 14.3mph /  23km/h 66% 0in /  0.0mm
10:11 58.1 °F /  14.5 °C 46 °F /  7.8 °C 29.9in /  1013.6hPa WNW 8.1mph /  13km/h 15.2mph /  24.5km/h 64% 0in /  0.0mm
11:11 60.4 °F /  15.8 °C 47.5 °F /  8.6 °C 29.9in /  1013.7hPa North 8.7mph /  14km/h 16.3mph /  26.3km/h 62% 0in /  0.0mm
12:11 63 °F /  17.2 °C 47.8 °F /  8.8 °C 29.9in /  1013.6hPa WNW 18.6mph /  29.9km/h 23.2mph /  37.4km/h 58% 0in /  0.0mm
13:11 64.9 °F /  18.3 °C 48.4 °F /  9.1 °C 29.9in /  1013.3hPa NW 12.3mph /  19.8km/h 20.6mph /  33.1km/h 55% 0in /  0.0mm
14:11 66.4 °F /  19.1 °C 49.3 °F /  9.6 °C 29.9in /  1012.9hPa WSW 11.4mph /  18.4km/h 18.8mph /  30.2km/h 54% 0in /  0.0mm
15:11 67.1 °F /  19.5 °C 49.8 °F /  9.9 °C 29.9in /  1012.6hPa West 15.2mph /  24.5km/h 20.1mph /  32.4km/h 54% 0in /  0.0mm
16:11 67.1 °F /  19.5 °C 49.8 °F /  9.9 °C 29.9in /  1012.5hPa WNW 18.8mph /  30.2km/h 23.1mph /  37.1km/h 54% 0in /  0.0mm
17:11 66 °F /  18.9 °C 46.9 °F /  8.3 °C 29.9in /  1012.7hPa West 10.1mph /  16.2km/h 19mph /  30.6km/h 50% 0in /  0.0mm
18:11 64.2 °F /  17.9 °C 45.1 °F /  7.3 °C 29.9in /  1013.5hPa West 5.6mph /  9km/h 9.8mph /  15.8km/h 50% 0in /  0.0mm
19:11 61.5 °F /  16.4 °C 42.1 °F /  5.6 °C 29.9in /  1013.0hPa WNW 29.1mph /  46.8km/h 29.1mph /  46.8km/h 49% 0in /  0.0mm
20:11 60.1 °F /  15.6 °C 41.4 °F /  5.2 °C 29.9in /  1013.7hPa SW 3.1mph /  5km/h 17.5mph /  28.1km/h 50% 0in /  0.0mm
21:11 58.6 °F /  14.8 °C 39 °F /  3.9 °C 29.9in /  1014.0hPa West 5.3mph /  8.6km/h 18.1mph /  29.2km/h 48% 0in /  0.0mm
22:11 57 °F /  13.9 °C 39.2 °F /  4 °C 30in /  1014.5hPa NW 7mph /  11.2km/h 57mph /  91.8km/h 51% 0in /  0.0mm
23:11 56.1 °F /  13.4 °C 39.2 °F /  4 °C 30in /  1015.0hPa WNW 7mph /  11.2km/h 57mph /  91.8km/h 53% 0in /  0.0mm
Observations météo à CASSIS
WU-History script by Weather Underground - 2 mb